createdAt,value
2017-03-25T00:00:55.520Z,1025.97
2017-03-25T00:02:05.743Z,1025.96
2017-03-25T00:03:15.755Z,1025.95
2017-03-25T00:04:25.978Z,1025.93
2017-03-25T00:05:35.899Z,1025.9
2017-03-25T00:06:46.156Z,1025.88
2017-03-25T00:07:55.477Z,1025.88
2017-03-25T00:09:05.497Z,1025.9
2017-03-25T00:10:15.721Z,1025.91
2017-03-25T00:11:25.637Z,1025.92
2017-03-25T00:12:35.561Z,1025.92
2017-03-25T00:13:45.804Z,1025.92
2017-03-25T00:14:55.553Z,1025.94
2017-03-25T00:16:05.167Z,1025.94
2017-03-25T00:17:14.785Z,1025.95
2017-03-25T00:18:24.725Z,1025.99
2017-03-25T00:19:34.353Z,1025.99
2017-03-25T00:20:43.851Z,1026.01
2017-03-25T00:21:54.097Z,1025.98
2017-03-25T00:23:04.321Z,1025.98
2017-03-25T00:24:13.970Z,1026
2017-03-25T00:25:23.901Z,1025.91
2017-03-25T00:26:34.271Z,1025.97
2017-03-25T00:27:43.889Z,1025.96
2017-03-25T00:28:53.784Z,1025.94
2017-03-25T00:30:03.689Z,1025.99
2017-03-25T00:31:13.612Z,1025.96
2017-03-25T00:32:23.692Z,1025.95
2017-03-25T00:33:33.929Z,1025.9
2017-03-25T00:34:44.180Z,1025.88
2017-03-25T00:35:54.395Z,1025.91
2017-03-25T00:37:04.318Z,1025.85
2017-03-25T00:38:14.400Z,1025.86
2017-03-25T00:39:30.270Z,1025.84
2017-03-25T00:40:40.512Z,1025.81
2017-03-25T00:41:50.744Z,1025.81
2017-03-25T00:43:00.646Z,1025.82
2017-03-25T00:44:11.018Z,1025.85
2017-03-25T00:45:20.621Z,1025.84
2017-03-25T00:46:30.584Z,1025.8
2017-03-25T00:47:40.489Z,1025.79
2017-03-25T00:48:49.788Z,1025.8
2017-03-25T00:49:59.508Z,1025.79
2017-03-25T00:51:09.121Z,1025.79
2017-03-25T00:52:19.367Z,1025.79
2017-03-25T00:53:29.029Z,1025.82
2017-03-25T00:54:39.255Z,1025.83
2017-03-25T00:55:49.023Z,1025.81
2017-03-25T00:56:58.972Z,1025.81
2017-03-25T00:58:09.204Z,1025.83
2017-03-25T00:59:19.438Z,1025.77
2017-03-25T01:00:29.061Z,1025.81
2017-03-25T01:01:39.905Z,1025.82
2017-03-25T01:02:49.892Z,1025.8
2017-03-25T01:03:59.839Z,1025.83
2017-03-25T01:05:09.761Z,1025.77
2017-03-25T01:06:19.088Z,1025.73
2017-03-25T01:07:29.297Z,1025.73
2017-03-25T01:08:39.215Z,1025.75
2017-03-25T01:09:48.530Z,1025.71
2017-03-25T01:10:58.149Z,1025.68
2017-03-25T01:12:07.782Z,1025.67
2017-03-25T01:13:17.730Z,1025.64
2017-03-25T01:14:27.361Z,1025.64
2017-03-25T01:15:37.307Z,1025.64
2017-03-25T01:16:47.566Z,1025.66
2017-03-25T01:17:57.512Z,1025.68
2017-03-25T01:19:06.949Z,1025.7
2017-03-25T01:20:16.331Z,1025.66
2017-03-25T01:21:26.584Z,1025.68
2017-03-25T01:22:36.201Z,1025.67
2017-03-25T01:23:45.520Z,1025.69
2017-03-25T01:24:55.559Z,1025.63
2017-03-25T01:26:05.475Z,1025.59
2017-03-25T01:27:15.396Z,1025.6
2017-03-25T01:28:25.681Z,1025.58
2017-03-25T01:29:35.929Z,1025.6
2017-03-25T01:30:46.014Z,1025.6
2017-03-25T01:31:56.234Z,1025.63
2017-03-25T01:33:06.157Z,1025.6
2017-03-25T01:34:16.082Z,1025.63
2017-03-25T01:35:26.028Z,1025.62
2017-03-25T01:36:35.815Z,1025.64
2017-03-25T01:37:46.056Z,1025.61
2017-03-25T01:38:56.285Z,1025.58
2017-03-25T01:40:05.912Z,1025.58
2017-03-25T01:41:15.532Z,1025.58
2017-03-25T01:42:26.020Z,1025.6
2017-03-25T01:43:35.968Z,1025.58
2017-03-25T01:44:45.884Z,1025.58
2017-03-25T01:45:56.110Z,1025.58
2017-03-25T01:47:05.427Z,1025.54
2017-03-25T01:48:15.488Z,1025.56
2017-03-25T01:49:25.705Z,1025.55
2017-03-25T01:50:35.929Z,1025.48
2017-03-25T01:51:45.846Z,1025.5
2017-03-25T01:52:55.760Z,1025.5
2017-03-25T01:54:05.839Z,1025.45
2017-03-25T01:55:15.751Z,1025.43
2017-03-25T01:56:25.973Z,1025.42
2017-03-25T01:57:35.875Z,1025.43
2017-03-25T01:58:45.797Z,1025.39
2017-03-25T01:59:55.752Z,1025.4
2017-03-25T02:01:05.346Z,1025.38
2017-03-25T02:02:15.306Z,1025.37
2017-03-25T02:03:25.520Z,1025.32
2017-03-25T02:04:35.734Z,1025.36
2017-03-25T02:05:45.885Z,1025.32
2017-03-25T02:06:55.491Z,1025.35
2017-03-25T02:08:05.405Z,1025.32
2017-03-25T02:09:15.613Z,1025.31
2017-03-25T02:10:25.520Z,1025.36
2017-03-25T02:11:35.427Z,1025.34
2017-03-25T02:12:45.656Z,1025.3
2017-03-25T02:13:55.554Z,1025.35
2017-03-25T02:15:05.793Z,1025.32
2017-03-25T02:16:15.702Z,1025.34
2017-03-25T02:17:25.098Z,1025.33
2017-03-25T02:18:35.310Z,1025.33
2017-03-25T02:19:44.916Z,1025.29
2017-03-25T02:20:54.521Z,1025.28
2017-03-25T02:22:04.422Z,1025.26
2017-03-25T02:23:14.337Z,1025.26
2017-03-25T02:24:23.343Z,1025.25
2017-03-25T02:25:33.246Z,1025.32
2017-03-25T02:26:43.175Z,1025.28
2017-03-25T02:27:53.380Z,1025.27
2017-03-25T02:29:03.436Z,1025.26
2017-03-25T02:30:13.653Z,1025.27
2017-03-25T02:31:23.876Z,1025.26
2017-03-25T02:32:33.800Z,1025.26
2017-03-25T02:33:44.029Z,1025.23
2017-03-25T02:34:53.779Z,1025.22
2017-03-25T02:36:03.376Z,1025.2
2017-03-25T02:37:13.270Z,1025.22
2017-03-25T02:38:23.245Z,1025.16
2017-03-25T02:39:33.474Z,1025.18
2017-03-25T02:40:43.148Z,1025.15
2017-03-25T02:41:52.813Z,1025.15
2017-03-25T02:43:03.053Z,1025.16
2017-03-25T02:44:13.022Z,1025.11
2017-03-25T02:45:22.648Z,1025.1
2017-03-25T02:46:32.142Z,1025.11
2017-03-25T02:47:42.116Z,1025.13
2017-03-25T02:48:51.735Z,1025.1
2017-03-25T02:50:01.370Z,1025.15
2017-03-25T02:51:11.004Z,1025.12
2017-03-25T02:52:20.498Z,1025.17
2017-03-25T02:53:30.482Z,1025.15
2017-03-25T02:54:40.466Z,1025.12
2017-03-25T02:55:50.405Z,1025.1
2017-03-25T02:57:00.678Z,1025.08
2017-03-25T02:58:11.093Z,1025.07
2017-03-25T02:59:21.351Z,1025.08
2017-03-25T03:00:31.657Z,1025.07
2017-03-25T03:01:41.102Z,1025.12
2017-03-25T03:02:51.405Z,1025.09
2017-03-25T03:04:01.594Z,1025.08
2017-03-25T03:05:11.543Z,1025.09
2017-03-25T03:06:21.790Z,1025.06
2017-03-25T03:07:31.730Z,1025.07
2017-03-25T03:08:41.690Z,1025.13
2017-03-25T03:09:51.983Z,1025.09
2017-03-25T03:11:01.961Z,1025.1
2017-03-25T03:12:11.927Z,1025.12
2017-03-25T03:13:22.175Z,1025.06
2017-03-25T03:14:32.159Z,1025.07
2017-03-25T03:15:42.337Z,1025.08
2017-03-25T03:16:52.246Z,1025.08
2017-03-25T03:18:02.502Z,1025.1
2017-03-25T03:19:13.099Z,1025.06
2017-03-25T03:20:23.054Z,1025.04
2017-03-25T03:21:32.867Z,1025.07
2017-03-25T03:22:42.824Z,1025.08
2017-03-25T03:23:52.797Z,1025.09
2017-03-25T03:25:03.034Z,1025.07
2017-03-25T03:26:12.391Z,1025.04
2017-03-25T03:27:22.777Z,1025
2017-03-25T03:28:33.047Z,1025.02
2017-03-25T03:29:43.310Z,1025.07
2017-03-25T03:30:53.580Z,1025.05
2017-03-25T03:32:03.820Z,1025.04
2017-03-25T03:33:13.654Z,1025.08
2017-03-25T03:34:23.650Z,1025.05
2017-03-25T03:35:33.954Z,1025.1
2017-03-25T03:36:43.887Z,1025.14
2017-03-25T03:37:54.186Z,1025.11
2017-03-25T03:39:04.306Z,1025.11
2017-03-25T03:40:14.550Z,1025.11
2017-03-25T03:41:24.183Z,1025.13
2017-03-25T03:42:34.146Z,1025.13
2017-03-25T03:43:44.096Z,1025.09
2017-03-25T03:44:54.640Z,1025.12
2017-03-25T03:46:04.898Z,1025.09
2017-03-25T03:47:14.249Z,1025.09
2017-03-25T03:48:24.479Z,1025.12
2017-03-25T03:49:34.716Z,1025.12
2017-03-25T03:50:44.958Z,1025.14
2017-03-25T03:51:54.884Z,1025.11
2017-03-25T03:53:05.128Z,1025.08
2017-03-25T03:54:15.076Z,1025.06
2017-03-25T03:55:25.019Z,1025.08
2017-03-25T03:56:34.823Z,1025.01
2017-03-25T03:57:44.744Z,1025.02
2017-03-25T03:58:54.407Z,1025.02
2017-03-25T04:00:04.676Z,1025.04
2017-03-25T04:01:14.619Z,1025.02
2017-03-25T04:02:25.170Z,1025.05
2017-03-25T04:03:35.091Z,1025.03
2017-03-25T04:04:44.715Z,1025.04
2017-03-25T04:05:54.962Z,1025.06
2017-03-25T04:07:04.597Z,1025.11
2017-03-25T04:08:14.664Z,1025.06
2017-03-25T04:09:24.611Z,1025.05
2017-03-25T04:10:34.861Z,1025.04
2017-03-25T04:11:44.505Z,1025.04
2017-03-25T04:12:54.117Z,1025.01
2017-03-25T04:14:03.901Z,1025.03
2017-03-25T04:15:13.844Z,1025.03
2017-03-25T04:16:23.801Z,1025.03
2017-03-25T04:17:34.069Z,1025.02
2017-03-25T04:18:44.013Z,1025.03
2017-03-25T04:19:54.645Z,1025.01
2017-03-25T04:21:05.272Z,1025.01
2017-03-25T04:22:15.508Z,1025
2017-03-25T04:23:25.136Z,1024.99
2017-03-25T04:24:35.390Z,1024.95
2017-03-25T04:25:45.881Z,1024.98
2017-03-25T04:26:55.539Z,1024.96
2017-03-25T04:28:05.477Z,1025.02
2017-03-25T04:29:15.434Z,1025.01
2017-03-25T04:30:24.747Z,1025.02
2017-03-25T04:31:34.674Z,1025.03
2017-03-25T04:32:45.261Z,1025
2017-03-25T04:33:55.516Z,1025
2017-03-25T04:35:05.133Z,1025.03
2017-03-25T04:36:15.078Z,1024.99
2017-03-25T04:37:25.729Z,1025.03
2017-03-25T04:38:35.675Z,1025.04
2017-03-25T04:39:45.650Z,1025.05
2017-03-25T04:40:55.606Z,1025.05
2017-03-25T04:42:05.551Z,1025.03
2017-03-25T04:43:16.058Z,1025.02
2017-03-25T04:44:25.981Z,1025.02
2017-03-25T04:45:35.620Z,1025.02
2017-03-25T04:46:45.574Z,1025.02
2017-03-25T04:47:55.502Z,1025.04
2017-03-25T04:49:05.496Z,1025.04
2017-03-25T04:50:15.472Z,1025.02
2017-03-25T04:51:25.094Z,1025.01
2017-03-25T04:52:35.039Z,1025.07
2017-03-25T04:53:44.405Z,1025.01
2017-03-25T04:54:54.628Z,1025.01
2017-03-25T04:56:04.617Z,1025.02
2017-03-25T04:57:14.864Z,1024.99
2017-03-25T04:58:25.088Z,1025
2017-03-25T04:59:35.026Z,1025.02
2017-03-25T05:00:45.626Z,1024.97
2017-03-25T05:01:55.895Z,1025
2017-03-25T05:03:05.504Z,1025
2017-03-25T05:04:15.447Z,1024.97
2017-03-25T05:05:24.768Z,1025.02
2017-03-25T05:06:35.265Z,1024.99
2017-03-25T05:07:45.530Z,1025.01
2017-03-25T05:08:55.808Z,1025.01
2017-03-25T05:10:05.459Z,1024.99
2017-03-25T05:11:15.381Z,1024.97
2017-03-25T05:12:26.047Z,1024.95
2017-03-25T05:13:35.713Z,1024.95
2017-03-25T05:14:45.970Z,1024.97
2017-03-25T05:15:55.607Z,1024.92
2017-03-25T05:17:05.539Z,1024.91
2017-03-25T05:18:16.830Z,1024.99
2017-03-25T05:19:26.780Z,1025.01
2017-03-25T05:20:37.012Z,1025
2017-03-25T05:21:46.641Z,1025.05
2017-03-25T05:22:56.252Z,1025.05
2017-03-25T05:24:06.773Z,1025.01
2017-03-25T05:25:16.998Z,1025.02
2017-03-25T05:26:26.955Z,1025.05
2017-03-25T05:27:37.224Z,1025.05
2017-03-25T05:28:47.443Z,1025.06
2017-03-25T05:29:57.434Z,1025.04
2017-03-25T05:31:07.370Z,1025.06
2017-03-25T05:32:17.596Z,1025.05
2017-03-25T05:33:27.835Z,1025.07
2017-03-25T05:34:37.467Z,1025.06
2017-03-25T05:35:48.011Z,1025.09
2017-03-25T05:36:57.989Z,1025.08
2017-03-25T05:38:07.931Z,1025.06
2017-03-25T05:39:18.271Z,1025.05
2017-03-25T05:40:28.214Z,1025.07
2017-03-25T05:41:38.478Z,1025.04
2017-03-25T05:42:48.716Z,1025.06
2017-03-25T05:43:58.064Z,1025.05
2017-03-25T05:45:07.379Z,1025.07
2017-03-25T05:46:17.696Z,1025.03
2017-03-25T05:47:27.902Z,1025.04
2017-03-25T05:48:37.907Z,1025.01
2017-03-25T05:49:48.159Z,1025.08
2017-03-25T05:50:57.798Z,1025.11
2017-03-25T05:52:07.424Z,1025.11
2017-03-25T05:53:17.533Z,1025.14
2017-03-25T05:54:27.206Z,1025.12
2017-03-25T05:55:37.442Z,1025.12
2017-03-25T05:56:47.695Z,1025.12
2017-03-25T05:57:57.977Z,1025.09
2017-03-25T05:59:08.109Z,1025.11
2017-03-25T06:00:17.115Z,1025.1
2017-03-25T06:01:26.443Z,1025.11
2017-03-25T06:02:36.459Z,1025.1
2017-03-25T06:03:46.109Z,1025.11
2017-03-25T06:04:56.356Z,1025.08
2017-03-25T06:06:05.996Z,1025.07
2017-03-25T06:07:15.622Z,1025.02
2017-03-25T06:08:25.289Z,1025.05
2017-03-25T06:09:35.570Z,1025.02
2017-03-25T06:10:45.820Z,1025.03
2017-03-25T06:11:55.465Z,1025.05
2017-03-25T06:13:05.362Z,1025.03
2017-03-25T06:14:15.279Z,1025.02
2017-03-25T06:15:25.499Z,1025.03
2017-03-25T06:16:35.552Z,1025
2017-03-25T06:17:45.464Z,1025.02
2017-03-25T06:18:55.700Z,1025.02
2017-03-25T06:20:05.617Z,1025.06
2017-03-25T06:21:14.929Z,1025.03
2017-03-25T06:22:24.625Z,1025.04
2017-03-25T06:23:34.842Z,1025.05
2017-03-25T06:24:44.770Z,1025.04
2017-03-25T06:25:55.000Z,1025.02
2017-03-25T06:27:05.216Z,1025.07
2017-03-25T06:28:14.991Z,1025.06
2017-03-25T06:29:24.903Z,1025.04
2017-03-25T06:30:34.846Z,1025.08
2017-03-25T06:31:45.152Z,1025.09
2017-03-25T06:32:55.591Z,1025.06
2017-03-25T06:34:06.164Z,1025.04
2017-03-25T06:35:16.468Z,1025.03
2017-03-25T06:36:26.395Z,1025.06
2017-03-25T06:37:36.308Z,1025.07
2017-03-25T06:38:46.566Z,1025.03
2017-03-25T06:39:57.565Z,1025.02
2017-03-25T06:41:07.490Z,1025.03
2017-03-25T06:42:17.410Z,1025.02
2017-03-25T06:43:27.318Z,1025.05
2017-03-25T06:44:37.555Z,1025.06
2017-03-25T06:45:48.569Z,1025.03
2017-03-25T06:46:58.794Z,1025.05
2017-03-25T06:48:09.008Z,1025.04
2017-03-25T06:49:18.930Z,1025.02
2017-03-25T06:50:29.199Z,1025.03
2017-03-25T06:51:39.869Z,1025.04
2017-03-25T06:52:49.835Z,1025.03
2017-03-25T06:53:59.761Z,1025.01
2017-03-25T06:55:10.021Z,1025.04
2017-03-25T06:56:19.027Z,1025.06
2017-03-25T06:57:29.596Z,1025.08
2017-03-25T06:58:39.522Z,1025.03
2017-03-25T06:59:49.454Z,1025.04
2017-03-25T07:00:59.089Z,1025
2017-03-25T07:02:09.328Z,1025.01
2017-03-25T07:03:19.520Z,1025.03
2017-03-25T07:04:29.130Z,1025.03
2017-03-25T07:05:39.351Z,1025.02
2017-03-25T07:06:49.285Z,1025.06
2017-03-25T07:07:58.292Z,1025.06
2017-03-25T07:09:08.066Z,1025.03
2017-03-25T07:10:18.006Z,1025.08
2017-03-25T07:11:27.644Z,1025.11
2017-03-25T07:12:37.870Z,1025.13
2017-03-25T07:13:47.518Z,1025.09
2017-03-25T07:14:58.015Z,1025.1
2017-03-25T07:16:07.975Z,1025.14
2017-03-25T07:17:17.885Z,1025.12
2017-03-25T07:18:27.180Z,1025.12
2017-03-25T07:19:36.820Z,1025.13
2017-03-25T07:20:46.504Z,1025.18
2017-03-25T07:21:56.161Z,1025.18
2017-03-25T07:23:05.787Z,1025.15
2017-03-25T07:24:15.721Z,1025.18
2017-03-25T07:25:25.953Z,1025.15
2017-03-25T07:26:35.531Z,1025.16
2017-03-25T07:27:46.120Z,1025.15
2017-03-25T07:28:55.733Z,1025.15
2017-03-25T07:30:05.954Z,1025.13
2017-03-25T07:31:16.211Z,1025.17
2017-03-25T07:32:26.274Z,1025.18
2017-03-25T07:33:35.896Z,1025.18
2017-03-25T07:34:46.123Z,1025.17
2017-03-25T07:35:56.049Z,1025.17
2017-03-25T07:37:05.740Z,1025.18
2017-03-25T07:38:16.055Z,1025.18
2017-03-25T07:39:25.986Z,1025.19
2017-03-25T07:40:36.217Z,1025.21
2017-03-25T07:41:45.826Z,1025.22
2017-03-25T07:42:55.732Z,1025.19
2017-03-25T07:44:06.206Z,1025.21
2017-03-25T07:45:16.443Z,1025.22
2017-03-25T07:46:26.362Z,1025.21
2017-03-25T07:47:36.597Z,1025.21
2017-03-25T07:48:46.834Z,1025.18
2017-03-25T07:49:57.208Z,1025.2
2017-03-25T07:51:07.124Z,1025.24
2017-03-25T07:52:16.730Z,1025.21
2017-03-25T07:53:26.333Z,1025.2
2017-03-25T07:54:35.638Z,1025.2
2017-03-25T07:55:45.856Z,1025.21
2017-03-25T07:56:55.266Z,1025.23
2017-03-25T07:58:05.182Z,1025.2
2017-03-25T07:59:15.127Z,1025.2
2017-03-25T08:00:24.520Z,1025.23
2017-03-25T08:01:34.379Z,1025.2
2017-03-25T08:02:45.391Z,1025.19
2017-03-25T08:03:55.683Z,1025.23
2017-03-25T08:05:05.619Z,1025.15
2017-03-25T08:06:15.845Z,1025.2
2017-03-25T08:07:26.481Z,1025.2
2017-03-25T08:08:36.704Z,1025.16
2017-03-25T08:09:45.959Z,1025.14
2017-03-25T08:10:56.586Z,1025.13
2017-03-25T08:12:06.815Z,1025.17
2017-03-25T08:13:17.181Z,1025.17
2017-03-25T08:14:27.411Z,1025.15
2017-03-25T08:15:37.330Z,1025.12
2017-03-25T08:16:47.327Z,1025.15
2017-03-25T08:17:57.247Z,1025.15
2017-03-25T08:19:07.770Z,1025.16
2017-03-25T08:20:17.696Z,1025.15
2017-03-25T08:21:27.606Z,1025.17
2017-03-25T08:22:37.828Z,1025.13
2017-03-25T08:23:48.053Z,1025.1
2017-03-25T08:24:58.014Z,1025.1
2017-03-25T08:26:07.316Z,1025.05
2017-03-25T08:27:16.602Z,1025.07
2017-03-25T08:28:26.617Z,1025.01
2017-03-25T08:29:36.587Z,1025.03
2017-03-25T08:30:46.849Z,1024.98
2017-03-25T08:31:57.079Z,1025
2017-03-25T08:33:06.990Z,1025.04
2017-03-25T08:34:17.210Z,1025.01
2017-03-25T08:35:27.465Z,1025.02
2017-03-25T08:36:37.727Z,1025.02
2017-03-25T08:37:47.638Z,1025.02
2017-03-25T08:38:56.315Z,1024.97
2017-03-25T08:40:05.920Z,1024.98
2017-03-25T08:41:15.535Z,1024.99
2017-03-25T08:42:26.110Z,1024.95
2017-03-25T08:43:35.753Z,1024.94
2017-03-25T08:44:46.080Z,1024.99
2017-03-25T08:45:55.705Z,1024.94
2017-03-25T08:47:05.952Z,1024.97
2017-03-25T08:48:16.517Z,1024.95
2017-03-25T08:49:26.435Z,1024.99
2017-03-25T08:50:36.659Z,1024.91
2017-03-25T08:51:46.884Z,1024.91
2017-03-25T08:52:56.797Z,1024.86
2017-03-25T08:54:07.163Z,1024.86
2017-03-25T08:55:16.168Z,1024.82
2017-03-25T08:56:26.083Z,1024.8
2017-03-25T08:57:36.018Z,1024.79
2017-03-25T08:58:46.252Z,1024.8
2017-03-25T08:59:56.841Z,1024.76
2017-03-25T09:01:07.080Z,1024.8
2017-03-25T09:02:16.382Z,1024.78
2017-03-25T09:03:26.303Z,1024.8
2017-03-25T09:04:35.921Z,1024.76
2017-03-25T09:05:46.439Z,1024.82
2017-03-25T09:06:56.049Z,1024.79
2017-03-25T09:08:05.962Z,1024.78
2017-03-25T09:09:16.200Z,1024.77
2017-03-25T09:10:26.436Z,1024.79
2017-03-25T09:11:36.660Z,1024.76
2017-03-25T09:12:46.274Z,1024.78
2017-03-25T09:13:56.504Z,1024.77
2017-03-25T09:15:05.810Z,1024.77
2017-03-25T09:16:15.413Z,1024.74
2017-03-25T09:17:25.600Z,1024.76
2017-03-25T09:18:35.519Z,1024.73
2017-03-25T09:19:45.753Z,1024.71
2017-03-25T09:20:55.670Z,1024.69
2017-03-25T09:22:05.893Z,1024.7
2017-03-25T09:23:16.053Z,1024.71
2017-03-25T09:24:25.962Z,1024.72
2017-03-25T09:25:35.881Z,1024.62
2017-03-25T09:26:45.796Z,1024.62
2017-03-25T09:27:56.016Z,1024.56
2017-03-25T09:29:06.386Z,1024.61
2017-03-25T09:30:16.604Z,1024.58
2017-03-25T09:31:26.851Z,1024.55
2017-03-25T09:32:36.778Z,1024.55
2017-03-25T09:33:47.003Z,1024.5
2017-03-25T09:34:57.276Z,1024.54
2017-03-25T09:36:06.566Z,1024.54
2017-03-25T09:37:16.208Z,1024.52
2017-03-25T09:38:26.824Z,1024.45
2017-03-25T09:39:37.053Z,1024.48
2017-03-25T09:40:47.561Z,1024.47
2017-03-25T09:41:57.792Z,1024.46
2017-03-25T09:43:07.719Z,1024.43
2017-03-25T09:44:17.632Z,1024.39
2017-03-25T09:45:27.533Z,1024.39
2017-03-25T09:46:38.053Z,1024.3
2017-03-25T09:47:48.258Z,1024.34
2017-03-25T09:48:58.471Z,1024.33
2017-03-25T09:50:08.699Z,1024.29
2017-03-25T09:51:18.618Z,1024.31
2017-03-25T09:52:29.130Z,1024.28
2017-03-25T09:53:38.740Z,1024.28
2017-03-25T09:54:48.959Z,1024.27
2017-03-25T09:55:59.177Z,1024.25
2017-03-25T09:57:09.399Z,1024.24
2017-03-25T09:58:19.314Z,1024.18
2017-03-25T09:59:29.533Z,1024.16
2017-03-25T10:00:39.433Z,1024.15
2017-03-25T10:01:49.339Z,1024.17
2017-03-25T10:02:58.627Z,1024.11
2017-03-25T10:04:08.643Z,1024.1
2017-03-25T10:05:18.584Z,1024.08
2017-03-25T10:06:28.490Z,1024.09
2017-03-25T10:07:38.716Z,1024.05
2017-03-25T10:08:48.642Z,1023.99
2017-03-25T10:09:58.818Z,1024
2017-03-25T10:11:08.425Z,1023.88
2017-03-25T10:12:18.041Z,1023.86
2017-03-25T10:13:27.947Z,1023.89
2017-03-25T10:14:38.165Z,1023.87
2017-03-25T10:15:47.604Z,1023.85
2017-03-25T10:16:57.539Z,1023.84
2017-03-25T10:18:06.842Z,1023.84
2017-03-25T10:19:17.063Z,1023.82
2017-03-25T10:20:27.279Z,1023.78
2017-03-25T10:21:37.925Z,1023.73
2017-03-25T10:22:47.828Z,1023.73
2017-03-25T10:23:57.741Z,1023.76
2017-03-25T10:25:07.965Z,1023.82
2017-03-25T10:26:18.195Z,1023.67
2017-03-25T10:27:28.215Z,1023.68
2017-03-25T10:28:38.120Z,1023.68
2017-03-25T10:29:48.024Z,1023.66
2017-03-25T10:30:57.934Z,1023.72
2017-03-25T10:32:07.832Z,1023.68
2017-03-25T10:33:17.708Z,1023.65
2017-03-25T10:34:27.630Z,1023.68
2017-03-25T10:35:37.237Z,1023.65
2017-03-25T10:36:46.888Z,1023.63
2017-03-25T10:37:56.798Z,1023.65
2017-03-25T10:39:07.170Z,1023.58
2017-03-25T10:40:17.077Z,1023.56
2017-03-25T10:41:26.990Z,1023.55
2017-03-25T10:42:37.201Z,1023.5
2017-03-25T10:43:47.417Z,1023.51
2017-03-25T10:44:57.685Z,1023.54
2017-03-25T10:46:07.291Z,1023.46
2017-03-25T10:47:16.904Z,1023.46
2017-03-25T10:48:26.200Z,1023.43
2017-03-25T10:49:36.136Z,1023.49
2017-03-25T10:50:46.220Z,1023.47
2017-03-25T10:51:55.831Z,1023.41
2017-03-25T10:53:05.424Z,1023.43
2017-03-25T10:54:15.340Z,1023.43
2017-03-25T10:55:24.953Z,1023.41
2017-03-25T10:56:34.411Z,1023.36
2017-03-25T10:57:44.329Z,1023.34
2017-03-25T10:58:53.628Z,1023.39
2017-03-25T11:00:03.838Z,1023.37
2017-03-25T11:01:13.756Z,1023.32
2017-03-25T11:02:24.736Z,1023.32
2017-03-25T11:03:34.024Z,1023.28
2017-03-25T11:04:43.629Z,1023.27
2017-03-25T11:05:53.543Z,1023.33
2017-03-25T11:07:03.765Z,1023.31
2017-03-25T11:08:14.129Z,1023.27
2017-03-25T11:09:24.351Z,1023.21
2017-03-25T11:10:33.941Z,1023.18
2017-03-25T11:11:43.248Z,1023.14
2017-03-25T11:12:53.161Z,1023.13
2017-03-25T11:14:03.023Z,1023.12
2017-03-25T11:15:12.636Z,1023.1
2017-03-25T11:16:22.872Z,1023.06
2017-03-25T11:17:32.783Z,1023.05
2017-03-25T11:18:42.699Z,1022.99
2017-03-25T11:19:52.720Z,1022.97
2017-03-25T11:21:02.640Z,1022.98
2017-03-25T11:22:12.597Z,1022.9
2017-03-25T11:23:22.510Z,1022.9
2017-03-25T11:24:32.411Z,1022.95
2017-03-25T11:25:42.569Z,1022.89
2017-03-25T11:26:52.788Z,1022.87
2017-03-25T11:28:03.021Z,1022.84
2017-03-25T11:29:12.951Z,1022.78
2017-03-25T11:30:22.569Z,1022.82
2017-03-25T11:31:33.181Z,1022.78
2017-03-25T11:32:43.105Z,1022.81
2017-03-25T11:33:53.019Z,1022.77
2017-03-25T11:35:03.251Z,1022.76
2017-03-25T11:36:13.164Z,1022.78
2017-03-25T11:37:23.232Z,1022.78
2017-03-25T11:38:33.189Z,1022.73
2017-03-25T11:39:42.801Z,1022.62
2017-03-25T11:40:53.055Z,1022.63
2017-03-25T11:42:02.382Z,1022.67
2017-03-25T11:43:12.095Z,1022.65
2017-03-25T11:44:22.327Z,1022.65
2017-03-25T11:45:31.926Z,1022.62
2017-03-25T11:46:41.532Z,1022.61
2017-03-25T11:47:51.145Z,1022.6
2017-03-25T11:49:00.706Z,1022.61
2017-03-25T11:50:10.931Z,1022.67
2017-03-25T11:51:21.154Z,1022.6
2017-03-25T11:52:31.391Z,1022.56
2017-03-25T11:53:41.335Z,1022.54
2017-03-25T11:54:51.813Z,1022.51
2017-03-25T11:56:01.418Z,1022.5
2017-03-25T11:57:11.320Z,1022.48
2017-03-25T11:58:21.294Z,1022.4
2017-03-25T11:59:31.508Z,1022.39
2017-03-25T12:00:41.263Z,1022.32
2017-03-25T12:01:50.567Z,1022.35
2017-03-25T12:03:00.772Z,1022.32
2017-03-25T12:04:10.688Z,1022.32
2017-03-25T12:05:20.937Z,1022.3
2017-03-25T12:06:30.684Z,1022.2
2017-03-25T12:07:39.994Z,1022.23
2017-03-25T12:08:50.218Z,1022.25
2017-03-25T12:10:00.429Z,1022.21
2017-03-25T12:11:09.741Z,1022.19
2017-03-25T12:12:20.296Z,1022.2
2017-03-25T12:13:29.603Z,1022.2
2017-03-25T12:14:39.239Z,1022.17
2017-03-25T12:15:49.167Z,1022.15
2017-03-25T12:16:58.756Z,1022.17
2017-03-25T12:18:08.935Z,1022.11
2017-03-25T12:19:18.843Z,1022.02
2017-03-25T12:20:29.087Z,1022.01
2017-03-25T12:21:39.001Z,1021.95
2017-03-25T12:22:49.129Z,1021.96
2017-03-25T12:23:59.372Z,1021.91
2017-03-25T12:25:08.990Z,1021.9
2017-03-25T12:26:19.208Z,1021.8
2017-03-25T12:27:29.114Z,1021.88
2017-03-25T12:28:39.112Z,1021.81
2017-03-25T12:29:49.086Z,1021.81
2017-03-25T12:30:59.080Z,1021.81
2017-03-25T12:32:09.304Z,1021.72
2017-03-25T12:33:19.225Z,1021.72
2017-03-25T12:34:29.443Z,1021.71
2017-03-25T12:35:39.155Z,1021.65
2017-03-25T12:36:49.361Z,1021.71
2017-03-25T12:37:59.578Z,1021.6
2017-03-25T12:39:09.797Z,1021.63
2017-03-25T12:40:19.716Z,1021.68
2017-03-25T12:41:29.730Z,1021.63
2017-03-25T12:42:39.624Z,1021.64
2017-03-25T12:43:49.234Z,1021.55
2017-03-25T12:44:59.452Z,1021.55
2017-03-25T12:46:09.365Z,1021.61
2017-03-25T12:47:19.220Z,1021.64
2017-03-25T12:48:29.432Z,1021.54
2017-03-25T12:49:39.048Z,1021.51
2017-03-25T12:50:48.958Z,1021.46
2017-03-25T12:51:58.582Z,1021.49
2017-03-25T12:53:08.589Z,1021.5
2017-03-25T12:54:18.206Z,1021.47
2017-03-25T12:55:28.441Z,1021.43
2017-03-25T12:56:38.665Z,1021.37
2017-03-25T12:57:48.275Z,1021.39
2017-03-25T12:58:58.834Z,1021.34
2017-03-25T13:00:09.070Z,1021.29
2017-03-25T13:01:18.664Z,1021.31
2017-03-25T13:02:28.882Z,1021.31
2017-03-25T13:03:38.499Z,1021.24
2017-03-25T13:04:48.873Z,1021.27
2017-03-25T13:05:59.102Z,1021.22
2017-03-25T13:07:09.703Z,1021.19
2017-03-25T13:08:19.928Z,1021.22
2017-03-25T13:09:29.232Z,1021.24
2017-03-25T13:10:39.279Z,1021.16
2017-03-25T13:11:48.283Z,1021.14
2017-03-25T13:12:58.217Z,1021.1
2017-03-25T13:14:08.123Z,1021.05
2017-03-25T13:15:18.347Z,1021.03
2017-03-25T13:16:28.666Z,1021
2017-03-25T13:17:38.894Z,1020.99
2017-03-25T13:18:48.506Z,1021.01
2017-03-25T13:19:57.813Z,1021.01
2017-03-25T13:21:07.722Z,1020.96
2017-03-25T13:22:17.791Z,1020.9
2017-03-25T13:23:27.703Z,1020.86
2017-03-25T13:24:37.659Z,1020.89
2017-03-25T13:25:47.559Z,1020.88
2017-03-25T13:26:57.203Z,1020.87
2017-03-25T13:28:07.415Z,1020.87
2017-03-25T13:29:17.328Z,1020.82
2017-03-25T13:30:27.572Z,1020.76
2017-03-25T13:31:37.482Z,1020.8
2017-03-25T13:32:47.083Z,1020.76
2017-03-25T13:33:56.854Z,1020.76
2017-03-25T13:35:06.775Z,1020.71
2017-03-25T13:36:16.985Z,1020.72
2017-03-25T13:37:27.227Z,1020.76
2017-03-25T13:38:36.829Z,1020.76
2017-03-25T13:39:47.302Z,1020.69
2017-03-25T13:40:56.903Z,1020.71
2017-03-25T13:42:06.492Z,1020.67
2017-03-25T13:43:16.402Z,1020.62
2017-03-25T13:44:26.633Z,1020.6
2017-03-25T13:45:36.516Z,1020.58
2017-03-25T13:46:46.732Z,1020.61
2017-03-25T13:47:56.664Z,1020.55
2017-03-25T13:49:06.579Z,1020.6
2017-03-25T13:50:16.182Z,1020.59
2017-03-25T13:51:26.334Z,1020.58
2017-03-25T13:52:35.925Z,1020.53
2017-03-25T13:53:45.532Z,1020.51
2017-03-25T13:54:55.133Z,1020.46
2017-03-25T13:56:04.740Z,1020.47
2017-03-25T13:57:16.137Z,1020.4
2017-03-25T13:58:26.368Z,1020.37
2017-03-25T13:59:36.283Z,1020.36
2017-03-25T14:00:46.527Z,1020.38
2017-03-25T14:01:56.436Z,1020.38
2017-03-25T14:03:06.912Z,1020.33
2017-03-25T14:04:17.130Z,1020.29
2017-03-25T14:05:26.735Z,1020.32
2017-03-25T14:06:36.942Z,1020.29
2017-03-25T14:07:46.550Z,1020.36
2017-03-25T14:08:56.611Z,1020.29
2017-03-25T14:10:06.835Z,1020.26
2017-03-25T14:11:16.738Z,1020.26